Time;durP1;ratioP1;P1;durP2;ratioP2;P2;SDS_P1;SDS_P2;PMS_P1;PMS_P2;Temp;Humidity;BMP_temperature;BMP_pressure;BME280_temperature;BME280_humidity;BME280_pressure;Samples;Min_cycle;Max_cycle;Signal;HPM_P1;HPM_P2
2021/09/09 00:02:06;;;;;;;9.45;8.32;;;22.60;52.90;;;;;;5025795;28;20021;-53
2021/09/09 00:04:35;;;;;;;12.45;9.02;;;22.50;53.10;;;;;;5025222;28;20442;-56
2021/09/09 00:07:02;;;;;;;9.23;8.13;;;22.50;53.00;;;;;;5023848;28;20358;-50
2021/09/09 00:09:28;;;;;;;10.00;9.00;;;22.50;53.00;;;;;;5024457;28;20033;-51
2021/09/09 00:11:55;;;;;;;13.15;8.52;;;22.50;53.10;;;;;;5025146;28;20038;-47
2021/09/09 00:14:22;;;;;;;9.23;8.05;;;22.50;53.00;;;;;;5024001;28;20064;-51
2021/09/09 00:16:49;;;;;;;11.20;8.48;;;22.50;53.00;;;;;;5024914;28;20045;-49
2021/09/09 00:19:17;;;;;;;13.45;8.60;;;22.50;53.10;;;;;;5025326;28;20033;-49
2021/09/09 00:21:44;;;;;;;12.82;7.88;;;22.50;53.20;;;;;;5023142;28;20038;-53
2021/09/09 00:24:11;;;;;;;11.45;8.65;;;22.50;53.20;;;;;;5024986;28;20034;-50
2021/09/09 00:26:38;;;;;;;11.00;8.68;;;22.50;53.00;;;;;;5025112;28;20046;-52
2021/09/09 00:29:05;;;;;;;11.85;8.93;;;22.50;53.00;;;;;;5022229;28;20026;-58
2021/09/09 00:31:32;;;;;;;12.27;8.43;;;22.50;53.10;;;;;;5024577;28;20053;-52
2021/09/09 00:33:59;;;;;;;12.52;8.63;;;22.50;53.10;;;;;;5025917;28;20081;-52
2021/09/09 00:36:37;;;;;;;19.77;9.35;;;22.50;53.20;;;;;;5025010;28;20076;-51
2021/09/09 00:39:03;;;;;;;12.40;8.65;;;22.40;53.30;;;;;;5023342;28;20090;-50
2021/09/09 00:41:30;;;;;;;9.77;8.65;;;22.40;53.10;;;;;;5024907;28;20045;-50
2021/09/09 00:43:57;;;;;;;13.00;8.63;;;22.50;53.20;;;;;;5024368;28;20053;-48
2021/09/09 00:46:25;;;;;;;11.32;8.27;;;22.50;53.30;;;;;;5023408;28;20033;-51
2021/09/09 00:48:51;;;;;;;14.07;9.23;;;22.50;53.50;;;;;;5024102;28;20473;-52
2021/09/09 00:51:19;;;;;;;11.95;8.60;;;22.50;53.20;;;;;;5025033;28;20033;-52
2021/09/09 00:53:45;;;;;;;9.73;8.48;;;22.50;53.50;;;;;;5022847;28;20034;-51
2021/09/09 00:56:13;;;;;;;14.57;8.70;;;22.50;53.70;;;;;;5024160;28;20036;-51
2021/09/09 00:58:41;;;;;;;13.50;8.98;;;22.40;53.30;;;;;;5024589;28;20581;-52
2021/09/09 01:01:11;;;;;;;9.98;8.10;;;22.40;53.40;;;;;;5025904;28;20026;-50
2021/09/09 01:03:38;;;;;;;11.27;7.70;;;22.40;53.40;;;;;;5022481;28;20041;-50
2021/09/09 01:06:04;;;;;;;10.68;8.75;;;22.40;53.50;;;;;;5024565;28;20048;-52
2021/09/09 01:08:31;;;;;;;9.63;8.55;;;22.50;54.00;;;;;;5023687;28;20034;-55
2021/09/09 01:10:59;;;;;;;10.98;8.48;;;22.40;54.30;;;;;;5022828;28;20033;-54
2021/09/09 01:13:26;;;;;;;12.15;8.60;;;22.40;54.10;;;;;;5024879;28;20033;-51
2021/09/09 01:15:52;;;;;;;9.55;8.18;;;22.40;54.90;;;;;;5023797;28;20049;-53
2021/09/09 01:18:19;;;;;;;11.05;8.52;;;22.40;55.70;;;;;;5022420;28;20561;-50
2021/09/09 01:20:47;;;;;;;11.10;8.07;;;22.40;56.40;;;;;;5024491;28;20052;-52
2021/09/09 01:23:13;;;;;;;11.20;8.20;;;22.40;57.60;;;;;;5023809;28;20061;-52
2021/09/09 01:25:40;;;;;;;9.93;8.02;;;22.30;57.60;;;;;;5022245;28;20033;-52
2021/09/09 01:28:06;;;;;;;10.18;9.15;;;22.30;57.10;;;;;;5025408;28;20033;-54
2021/09/09 01:30:33;;;;;;;13.40;9.73;;;22.30;56.40;;;;;;5028519;28;20048;-52
2021/09/09 01:33:01;;;;;;;12.40;8.52;;;22.30;56.30;;;;;;5033393;28;20040;-53
2021/09/09 01:35:28;;;;;;;12.50;8.77;;;22.30;56.00;;;;;;5032456;28;20493;-51
2021/09/09 01:37:55;;;;;;;11.15;8.50;;;22.30;57.00;;;;;;5034205;28;20497;-53
2021/09/09 01:40:31;;;;;;;9.48;8.43;;;22.30;57.70;;;;;;5033884;28;20057;-52
2021/09/09 01:42:59;;;;;;;11.85;8.65;;;22.30;58.30;;;;;;5031960;28;20054;-54
2021/09/09 01:45:27;;;;;;;10.15;8.93;;;22.30;58.40;;;;;;5032300;28;20053;-54
2021/09/09 01:47:53;;;;;;;12.80;8.63;;;22.20;59.00;;;;;;5032989;28;20049;-52
2021/09/09 01:50:20;;;;;;;10.48;8.77;;;22.20;59.20;;;;;;5032827;28;20029;-52
2021/09/09 01:52:47;;;;;;;10.55;8.55;;;22.20;58.70;;;;;;5032417;28;20054;-50
2021/09/09 01:55:13;;;;;;;9.90;8.90;;;22.20;58.40;;;;;;5033061;28;20037;-51
2021/09/09 01:57:40;;;;;;;9.43;8.52;;;22.20;58.30;;;;;;5034119;28;20504;-48
2021/09/09 02:00:07;;;;;;;12.02;8.48;;;22.10;58.40;;;;;;5034915;28;20474;-50
2021/09/09 02:02:39;;;;;;;10.82;9.60;;;22.10;58.50;;;;;;5032797;28;20045;-52
2021/09/09 02:05:06;;;;;;;12.05;9.10;;;22.10;58.70;;;;;;5034436;28;20045;-53
2021/09/09 02:07:32;;;;;;;10.48;7.88;;;22.10;59.10;;;;;;5033402;28;20049;-53
2021/09/09 02:09:59;;;;;;;10.00;8.50;;;22.10;59.10;;;;;;5033724;28;20044;-51
2021/09/09 02:12:25;;;;;;;10.57;8.93;;;22.10;59.20;;;;;;5034216;28;20049;-54
2021/09/09 02:14:52;;;;;;;11.15;8.75;;;22.10;59.20;;;;;;5033044;28;20064;-48
2021/09/09 02:17:18;;;;;;;9.82;8.82;;;22.10;59.70;;;;;;5034031;28;20037;-51
2021/09/09 02:19:45;;;;;;;9.65;8.15;;;22.10;60.00;;;;;;5033102;28;20034;-51
2021/09/09 02:22:11;;;;;;;10.90;8.20;;;22.00;60.20;;;;;;5033669;28;20045;-50
2021/09/09 02:24:44;;;;;;;11.70;8.15;;;22.00;60.50;;;;;;5033800;28;20386;-52
2021/09/09 02:27:20;;;;;;;10.90;8.80;;;22.00;60.80;;;;;;5033561;28;20041;-52
2021/09/09 02:29:46;;;;;;;12.30;10.05;;;22.00;60.40;;;;;;5033535;28;20037;-48
2021/09/09 02:32:13;;;;;;;15.02;9.20;;;22.00;60.20;;;;;;5033229;28;20390;-52
2021/09/09 02:34:39;;;;;;;9.68;8.07;;;22.00;60.50;;;;;;5033116;28;20050;-55
2021/09/09 02:37:06;;;;;;;9.88;8.35;;;22.00;60.60;;;;;;5033690;28;20071;-52
2021/09/09 02:39:33;;;;;;;10.55;8.88;;;22.00;59.40;;;;;;5033097;28;20041;-48
2021/09/09 02:41:59;;;;;;;9.00;7.65;;;22.00;58.50;;;;;;5033307;28;20050;-54
2021/09/09 02:44:26;;;;;;;9.68;8.13;;;22.00;58.90;;;;;;5033366;28;20032;-52
2021/09/09 02:46:52;;;;;;;12.68;9.73;;;22.00;58.50;;;;;;5033481;28;20048;-50
2021/09/09 02:49:19;;;;;;;11.10;8.60;;;22.00;57.20;;;;;;5032694;28;20363;-49
2021/09/09 02:51:45;;;;;;;10.23;7.95;;;22.00;56.90;;;;;;5033140;28;20509;-53
2021/09/09 02:54:12;;;;;;;9.80;8.13;;;22.00;55.60;;;;;;5031981;28;20393;-52
2021/09/09 02:56:38;;;;;;;9.63;8.60;;;22.10;55.00;;;;;;5032957;28;20093;-52
2021/09/09 02:59:05;;;;;;;11.32;8.70;;;22.10;54.40;;;;;;5033272;28;20056;-52
2021/09/09 03:01:31;;;;;;;10.57;8.95;;;22.10;54.60;;;;;;5032871;28;20474;-49
2021/09/09 03:03:58;;;;;;;8.65;7.75;;;22.10;54.60;;;;;;5032857;28;20034;-53
2021/09/09 03:06:24;;;;;;;11.00;9.25;;;22.10;54.20;;;;;;5032575;28;20060;-51
2021/09/09 03:08:50;;;;;;;9.73;8.57;;;22.10;54.30;;;;;;5032826;28;20489;-49
2021/09/09 03:11:17;;;;;;;10.23;8.50;;;22.10;54.20;;;;;;5032727;28;20044;-54
2021/09/09 03:13:43;;;;;;;11.10;8.10;;;22.10;54.30;;;;;;5032115;28;20049;-54
2021/09/09 03:16:10;;;;;;;8.32;7.53;;;22.10;54.20;;;;;;5033169;28;20041;-52
2021/09/09 03:18:36;;;;;;;11.48;8.63;;;22.10;54.40;;;;;;5028390;28;20048;-54
2021/09/09 03:21:03;;;;;;;9.15;7.60;;;22.10;54.30;;;;;;5030922;28;20053;-52
2021/09/09 03:23:29;;;;;;;11.52;8.32;;;22.10;54.40;;;;;;5022393;28;20038;-53
2021/09/09 03:25:56;;;;;;;9.70;8.73;;;22.10;54.40;;;;;;5022014;28;20061;-52
2021/09/09 03:28:22;;;;;;;11.93;8.00;;;22.10;54.30;;;;;;5030656;28;20049;-50
2021/09/09 03:30:49;;;;;;;10.00;8.15;;;22.10;54.20;;;;;;5021832;28;20025;-53
2021/09/09 03:33:15;;;;;;;10.40;8.35;;;22.10;54.30;;;;;;5021973;28;20048;-52
2021/09/09 03:35:42;;;;;;;11.20;8.30;;;22.10;54.30;;;;;;5019338;28;20044;-48
2021/09/09 03:38:09;;;;;;;11.82;8.13;;;22.10;54.30;;;;;;5022538;28;20048;-54
2021/09/09 03:40:36;;;;;;;9.45;8.25;;;22.10;54.40;;;;;;5021536;28;20037;-50
2021/09/09 03:43:03;;;;;;;11.82;8.50;;;22.10;54.40;;;;;;5030993;28;20029;-50
2021/09/09 03:45:30;;;;;;;9.25;8.32;;;22.10;54.40;;;;;;5021260;28;20041;-52
2021/09/09 03:47:56;;;;;;;10.32;8.45;;;22.10;54.40;;;;;;5021651;28;20034;-52
2021/09/09 03:50:23;;;;;;;14.63;8.65;;;22.10;54.50;;;;;;5030610;28;20037;-51
2021/09/09 03:52:49;;;;;;;9.63;8.55;;;22.10;54.30;;;;;;5021206;28;20052;-49
2021/09/09 03:55:16;;;;;;;12.73;8.68;;;22.10;54.30;;;;;;5020944;28;20061;-54
2021/09/09 03:57:42;;;;;;;10.45;8.02;;;22.10;54.40;;;;;;5031021;28;20030;-51
2021/09/09 04:00:09;;;;;;;11.63;8.90;;;22.10;54.20;;;;;;5021588;28;20025;-53
2021/09/09 04:02:36;;;;;;;11.55;8.70;;;22.10;54.10;;;;;;5021741;28;20042;-55
2021/09/09 04:05:03;;;;;;;13.23;8.93;;;22.10;54.10;;;;;;5031369;28;20042;-54
2021/09/09 04:07:29;;;;;;;12.38;8.73;;;22.10;54.20;;;;;;5030944;28;20034;-53
2021/09/09 04:09:56;;;;;;;9.43;8.50;;;22.10;54.20;;;;;;5030609;28;20064;-52
2021/09/09 04:12:22;;;;;;;12.52;9.00;;;22.10;54.10;;;;;;5019783;28;20048;-52
2021/09/09 04:14:49;;;;;;;10.77;8.05;;;22.10;54.20;;;;;;5022305;28;20394;-51
2021/09/09 04:17:16;;;;;;;10.63;8.18;;;22.10;54.20;;;;;;5021227;28;20410;-51
2021/09/09 04:19:42;;;;;;;13.68;9.35;;;22.10;54.40;;;;;;5030774;28;20367;-53
2021/09/09 04:22:09;;;;;;;13.30;9.43;;;22.10;54.40;;;;;;5030672;28;20504;-54
2021/09/09 04:24:36;;;;;;;11.15;8.20;;;22.10;54.30;;;;;;5030819;28;20029;-55
2021/09/09 04:27:04;;;;;;;10.40;8.10;;;22.10;54.30;;;;;;5019499;28;20034;-51
2021/09/09 04:29:31;;;;;;;9.45;8.40;;;22.10;54.30;;;;;;5030814;28;20026;-50
2021/09/09 04:31:57;;;;;;;14.80;9.25;;;22.10;54.10;;;;;;5030518;28;20040;-49
2021/09/09 04:34:24;;;;;;;12.57;9.18;;;22.10;54.20;;;;;;5020229;28;20046;-53
2021/09/09 04:36:50;;;;;;;11.90;8.55;;;22.10;54.20;;;;;;5021648;28;20069;-51
2021/09/09 04:39:17;;;;;;;13.77;9.07;;;22.10;54.50;;;;;;5024065;28;20026;-50
2021/09/09 04:41:43;;;;;;;9.60;8.38;;;22.10;54.40;;;;;;5033723;28;20439;-54
2021/09/09 04:44:10;;;;;;;11.20;8.60;;;22.10;54.40;;;;;;5024811;28;20049;-51
2021/09/09 04:46:36;;;;;;;13.02;9.20;;;22.10;54.60;;;;;;5024633;28;20505;-51
2021/09/09 04:49:02;;;;;;;10.40;8.23;;;22.10;54.60;;;;;;5022937;28;20025;-50
2021/09/09 04:51:29;;;;;;;9.35;8.35;;;22.10;54.70;;;;;;5032818;28;20052;-52
2021/09/09 04:53:56;;;;;;;10.73;9.63;;;22.10;54.80;;;;;;5033799;28;20045;-51
2021/09/09 04:56:22;;;;;;;11.95;9.60;;;22.10;54.80;;;;;;5033688;28;20060;-53
2021/09/09 04:58:49;;;;;;;9.82;8.82;;;22.00;54.60;;;;;;5024394;28;20033;-52
2021/09/09 05:01:15;;;;;;;11.60;9.02;;;22.00;54.70;;;;;;5024341;28;20041;-51
2021/09/09 05:03:41;;;;;;;9.75;8.65;;;22.00;54.60;;;;;;5022926;28;20046;-51
2021/09/09 05:06:09;;;;;;;11.68;8.85;;;22.00;54.60;;;;;;5033748;28;20060;-51
2021/09/09 05:08:35;;;;;;;11.23;10.13;;;22.00;56.20;;;;;;5032334;28;20022;-54
2021/09/09 05:11:01;;;;;;;13.70;10.73;;;21.90;57.50;;;;;;5022553;28;20034;-54
2021/09/09 05:13:28;;;;;;;13.52;10.35;;;21.90;59.50;;;;;;5022561;28;20398;-53
2021/09/09 05:15:55;;;;;;;13.45;10.50;;;21.90;60.40;;;;;;5023894;28;20037;-51
2021/09/09 05:18:21;;;;;;;13.60;10.10;;;21.80;61.10;;;;;;5004621;28;20041;-54
2021/09/09 05:20:48;;;;;;;11.45;10.27;;;21.80;60.50;;;;;;5033419;28;20360;-52
2021/09/09 05:23:15;;;;;;;15.20;9.98;;;21.80;60.00;;;;;;5033112;28;20053;-54
2021/09/09 05:25:42;;;;;;;13.52;10.05;;;21.80;59.40;;;;;;5022629;28;20029;-53
2021/09/09 05:28:08;;;;;;;10.65;9.55;;;21.90;59.00;;;;;;5033284;28;20038;-52
2021/09/09 05:30:35;;;;;;;12.48;10.40;;;21.90;58.70;;;;;;5031997;28;20036;-49
2021/09/09 05:33:01;;;;;;;13.48;9.68;;;21.80;58.70;;;;;;5033090;28;20036;-50
2021/09/09 05:35:28;;;;;;;12.85;9.10;;;21.80;58.90;;;;;;5030390;28;20056;-53
2021/09/09 05:37:54;;;;;;;15.05;10.38;;;21.80;59.20;;;;;;5032852;28;20025;-51
2021/09/09 05:40:21;;;;;;;19.48;10.13;;;21.80;59.30;;;;;;5032597;28;20064;-54
2021/09/09 05:42:47;;;;;;;11.50;9.50;;;21.80;59.00;;;;;;4990627;28;20034;-52
2021/09/09 05:45:14;;;;;;;10.77;9.60;;;21.80;58.90;;;;;;5032811;28;20041;-51
2021/09/09 05:47:40;;;;;;;13.75;9.40;;;21.80;59.10;;;;;;5022361;28;20021;-49
2021/09/09 05:50:08;;;;;;;12.77;9.52;;;21.80;59.00;;;;;;5022847;28;20033;-49
2021/09/09 05:52:34;;;;;;;11.02;9.98;;;21.80;59.10;;;;;;5021548;28;20029;-48
2021/09/09 05:55:01;;;;;;;10.38;9.35;;;21.80;59.20;;;;;;5022106;28;20470;-56
2021/09/09 05:57:28;;;;;;;12.68;9.00;;;21.80;59.00;;;;;;5032457;28;20046;-57
2021/09/09 05:59:54;;;;;;;15.52;10.73;;;21.70;59.20;;;;;;5031644;28;20060;-55
2021/09/09 06:02:23;;;;;;;13.05;9.65;;;21.80;59.60;;;;;;5021477;28;20025;-58
2021/09/09 06:04:51;;;;;;;11.75;10.13;;;21.80;59.40;;;;;;5032468;28;20029;-56
2021/09/09 06:07:17;;;;;;;11.63;9.27;;;21.80;59.40;;;;;;5031988;28;20029;-57
2021/09/09 06:09:44;;;;;;;11.95;10.40;;;21.80;59.50;;;;;;5021448;28;20022;-59
2021/09/09 06:12:10;;;;;;;14.25;9.60;;;21.80;58.90;;;;;;5032135;28;20045;-58
2021/09/09 06:14:37;;;;;;;14.40;10.43;;;21.80;58.90;;;;;;5032357;28;20431;-58
2021/09/09 06:17:04;;;;;;;13.35;10.27;;;21.80;58.60;;;;;;5021003;28;20053;-58
2021/09/09 06:19:30;;;;;;;15.55;11.15;;;21.80;58.60;;;;;;5031996;28;20017;-58
2021/09/09 06:21:58;;;;;;;12.07;10.18;;;21.80;58.40;;;;;;5031631;28;20045;-58
2021/09/09 06:24:25;;;;;;;13.05;10.88;;;21.80;58.60;;;;;;5032771;28;20033;-58
2021/09/09 06:26:52;;;;;;;11.77;10.05;;;21.80;58.60;;;;;;5031327;28;20064;-58
2021/09/09 06:29:18;;;;;;;14.50;12.02;;;21.80;58.70;;;;;;5032477;28;20033;-59
2021/09/09 06:31:45;;;;;;;13.82;11.27;;;21.80;58.50;;;;;;5031280;28;20048;-59
2021/09/09 06:34:11;;;;;;;14.30;10.73;;;21.80;58.70;;;;;;5032240;28;20033;-59
2021/09/09 06:36:38;;;;;;;12.10;10.70;;;21.70;59.00;;;;;;5031427;28;20065;-59
2021/09/09 06:39:06;;;;;;;12.35;11.05;;;21.70;59.30;;;;;;5030895;28;20042;-59
2021/09/09 06:41:33;;;;;;;12.90;10.73;;;21.70;59.30;;;;;;5032439;28;20029;-59
2021/09/09 06:43:59;;;;;;;12.32;11.15;;;21.70;59.20;;;;;;5031254;28;20489;-59
2021/09/09 06:46:26;;;;;;;11.93;10.52;;;21.70;59.30;;;;;;5032436;28;20386;-59
2021/09/09 06:48:52;;;;;;;13.07;11.75;;;21.70;59.70;;;;;;5031684;28;20501;-55
2021/09/09 06:51:21;;;;;;;12.43;10.40;;;21.70;59.60;;;;;;5030194;28;20033;-58
2021/09/09 06:53:48;;;;;;;16.60;11.75;;;21.70;59.60;;;;;;5031007;28;20033;-58
2021/09/09 06:56:15;;;;;;;14.82;10.88;;;21.80;59.70;;;;;;5032186;28;20025;-58
2021/09/09 06:58:41;;;;;;;12.88;11.10;;;21.70;59.90;;;;;;5031826;28;20474;-59
2021/09/09 07:01:08;;;;;;;14.18;11.40;;;21.70;59.70;;;;;;5032262;28;20025;-59
2021/09/09 07:03:34;;;;;;;14.85;12.43;;;21.70;59.80;;;;;;5032121;28;20041;-58
2021/09/09 07:06:00;;;;;;;13.13;11.82;;;21.80;59.90;;;;;;5031960;28;20531;-58
2021/09/09 07:08:27;;;;;;;13.05;11.55;;;21.70;59.80;;;;;;5031612;28;20466;-58
2021/09/09 07:10:53;;;;;;;13.40;12.02;;;21.70;59.90;;;;;;5031977;28;20099;-57
2021/09/09 07:13:21;;;;;;;18.60;12.27;;;21.70;59.80;;;;;;5013846;28;20045;-58
2021/09/09 07:15:47;;;;;;;13.93;11.73;;;21.70;60.00;;;;;;5031845;28;20061;-57
2021/09/09 07:18:14;;;;;;;15.23;11.70;;;21.70;59.90;;;;;;5032652;28;20075;-57
2021/09/09 07:20:40;;;;;;;15.55;12.38;;;21.70;59.80;;;;;;5031662;28;20038;-58
2021/09/09 07:23:07;;;;;;;19.45;13.68;;;21.70;60.00;;;;;;5030708;28;20108;-57
2021/09/09 07:25:33;;;;;;;16.15;12.13;;;21.70;60.00;;;;;;5031686;28;20037;-57
2021/09/09 07:28:00;;;;;;;17.50;11.13;;;21.70;60.00;;;;;;5032071;28;20057;-59
2021/09/09 07:30:26;;;;;;;19.33;12.13;;;21.80;60.10;;;;;;5031670;28;20042;-58
2021/09/09 07:32:53;;;;;;;16.65;12.90;;;21.70;60.40;;;;;;5030911;28;20037;-58
2021/09/09 07:35:20;;;;;;;16.27;12.48;;;21.70;60.70;;;;;;5031723;28;20046;-58
2021/09/09 07:37:46;;;;;;;16.67;12.70;;;21.70;60.60;;;;;;5032349;28;20370;-58
2021/09/09 07:40:13;;;;;;;13.27;11.98;;;21.80;60.10;;;;;;5032038;28;20434;-57
2021/09/09 07:42:40;;;;;;;13.90;10.55;;;21.70;60.00;;;;;;5031953;28;20038;-58
2021/09/09 07:45:07;;;;;;;13.57;11.38;;;21.70;60.10;;;;;;5032006;28;20037;-58
2021/09/09 07:47:33;;;;;;;13.25;11.77;;;21.80;60.20;;;;;;5030546;28;20048;-57
2021/09/09 07:50:00;;;;;;;16.48;13.20;;;21.90;61.20;;;;;;5014646;28;20026;-56
2021/09/09 07:52:26;;;;;;;14.85;13.00;;;21.90;60.40;;;;;;5030538;28;20041;-58
2021/09/09 07:54:52;;;;;;;14.32;11.43;;;21.80;60.50;;;;;;5030777;28;20029;-58
2021/09/09 07:57:19;;;;;;;12.93;11.60;;;21.80;60.70;;;;;;5030770;28;20478;-59
2021/09/09 07:59:46;;;;;;;13.98;12.57;;;21.90;60.20;;;;;;5031965;28;20037;-57
2021/09/09 08:02:12;;;;;;;15.15;13.55;;;21.90;60.00;;;;;;5030784;28;20045;-58
2021/09/09 08:04:38;;;;;;;14.05;12.32;;;21.90;59.60;;;;;;5031298;28;20482;-58
2021/09/09 08:07:05;;;;;;;16.10;12.68;;;21.90;59.60;;;;;;5030761;28;20041;-56
2021/09/09 08:09:31;;;;;;;14.50;12.05;;;22.00;58.90;;;;;;5031069;28;20046;-59
2021/09/09 08:11:58;;;;;;;14.23;12.00;;;22.00;58.60;;;;;;5031343;28;20053;-58
2021/09/09 08:14:24;;;;;;;14.55;13.02;;;22.10;58.30;;;;;;5034440;28;20026;-58
2021/09/09 08:16:51;;;;;;;14.40;12.32;;;22.20;57.40;;;;;;5036196;28;20385;-56
2021/09/09 08:19:17;;;;;;;16.13;13.88;;;22.20;57.50;;;;;;5035610;28;20042;-57
2021/09/09 08:21:44;;;;;;;16.65;13.43;;;22.30;57.10;;;;;;5034678;28;20056;-56
2021/09/09 08:24:10;;;;;;;18.13;13.73;;;22.40;56.80;;;;;;5035568;28;20053;-57
2021/09/09 08:26:37;;;;;;;18.08;15.57;;;22.40;56.70;;;;;;5035745;28;20029;-58
2021/09/09 08:29:04;;;;;;;26.50;19.58;;;22.50;57.00;;;;;;5035207;28;20052;-57
2021/09/09 08:31:30;;;;;;;17.45;15.30;;;22.60;56.90;;;;;;5035950;28;20362;-57
2021/09/09 08:33:58;;;;;;;22.83;16.83;;;22.60;56.50;;;;;;5035534;28;20064;-58
2021/09/09 08:36:25;;;;;;;15.95;14.10;;;22.60;56.30;;;;;;5036122;28;20064;-56
2021/09/09 08:38:51;;;;;;;14.85;13.30;;;22.60;56.10;;;;;;5034818;28;20053;-57
2021/09/09 08:41:19;;;;;;;16.02;14.18;;;22.70;56.40;;;;;;5035380;28;20394;-56
2021/09/09 08:43:46;;;;;;;16.30;12.90;;;22.70;56.10;;;;;;5035286;28;20169;-57
2021/09/09 08:46:15;;;;;;;15.43;13.73;;;22.70;56.10;;;;;;5035283;28;20042;-55
2021/09/09 08:48:45;;;;;;;15.27;13.65;;;22.80;55.60;;;;;;5034743;28;20478;-58
2021/09/09 08:51:13;;;;;;;13.63;12.20;;;22.90;56.00;;;;;;5035371;28;20029;-58
2021/09/09 08:53:41;;;;;;;18.38;13.18;;;23.00;55.80;;;;;;5035289;28;20097;-57
2021/09/09 08:56:07;;;;;;;15.13;13.05;;;23.10;55.50;;;;;;5034876;28;20401;-57
2021/09/09 08:58:36;;;;;;;20.55;12.98;;;23.20;55.20;;;;;;5035038;28;20046;-57
2021/09/09 09:01:06;;;;;;;17.83;13.52;;;23.20;54.80;;;;;;5034893;28;20043;-57
2021/09/09 09:03:48;;;;;;;16.33;14.63;;;23.30;54.30;;;;;;5035050;28;20401;-56
2021/09/09 09:06:26;;;;;;;15.15;13.65;;;23.30;54.30;;;;;;5034656;28;20060;-58
2021/09/09 09:09:10;;;;;;;17.00;14.75;;;23.30;54.40;;;;;;5035161;28;20030;-57
2021/09/09 09:11:45;;;;;;;17.05;13.05;;;23.30;54.10;;;;;;5034549;28;20060;-57
2021/09/09 09:14:18;;;;;;;18.13;13.85;;;23.30;54.00;;;;;;5033476;28;20038;-58
2021/09/09 09:16:54;;;;;;;18.38;14.25;;;23.30;53.90;;;;;;5034510;28;20045;-59
2021/09/09 09:19:26;;;;;;;18.02;13.75;;;23.30;53.90;;;;;;5034806;28;20037;-55
2021/09/09 09:22:03;;;;;;;18.90;14.82;;;23.20;53.80;;;;;;5034673;28;20041;-58
2021/09/09 09:24:33;;;;;;;16.90;14.43;;;23.30;53.90;;;;;;5033330;28;20397;-57
2021/09/09 09:27:04;;;;;;;18.95;15.40;;;23.30;54.00;;;;;;5034397;28;20037;-56
2021/09/09 09:29:31;;;;;;;18.10;13.98;;;23.30;54.10;;;;;;5034677;28;20044;-57
2021/09/09 09:32:27;;;;;;;17.27;14.43;;;23.30;53.80;;;;;;5034240;28;20049;-58
2021/09/09 09:35:27;;;;;;;17.65;13.73;;;23.30;53.10;;;;;;5025967;28;20514;-57
2021/09/09 09:38:01;;;;;;;18.05;14.68;;;23.30;52.60;;;;;;5033671;28;20506;-58
2021/09/09 09:40:33;;;;;;;19.98;13.65;;;23.40;53.30;;;;;;5034231;28;20049;-56
2021/09/09 09:43:06;;;;;;;16.33;13.63;;;23.40;53.40;;;;;;5033870;28;20402;-57
2021/09/09 09:45:33;;;;;;;17.20;14.15;;;23.40;52.70;;;;;;5034443;28;20474;-57
2021/09/09 09:48:00;;;;;;;15.80;13.02;;;23.40;51.90;;;;;;5032657;28;20048;-57
2021/09/09 09:50:36;;;;;;;16.45;14.02;;;23.40;52.30;;;;;;5034126;28;20493;-56
2021/09/09 09:53:17;;;;;;;15.38;11.88;;;23.40;52.10;;;;;;5033834;28;20170;-56
2021/09/09 09:55:43;;;;;;;;;;;23.40;52.30;;;;;;5034434;28;20049;-55
2021/09/09 09:58:10;;;;;;;17.77;14.50;;;23.40;52.60;;;;;;5034402;28;19913;-57
2021/09/09 10:00:36;;;;;;;22.95;15.00;;;23.40;52.10;;;;;;5033253;28;20052;-58
2021/09/09 10:03:04;;;;;;;19.23;14.13;;;23.40;51.90;;;;;;5033408;28;20072;-57
2021/09/09 10:05:35;;;;;;;15.48;13.25;;;23.40;52.00;;;;;;5033569;28;20045;-55
2021/09/09 10:08:02;;;;;;;16.05;14.05;;;23.40;52.30;;;;;;5033308;28;20044;-58
2021/09/09 10:10:28;;;;;;;16.05;13.80;;;23.40;52.20;;;;;;5033894;28;20068;-55
2021/09/09 10:12:55;;;;;;;14.32;12.82;;;23.40;51.90;;;;;;5033530;28;20045;-56
2021/09/09 10:15:23;;;;;;;22.48;12.52;;;23.40;51.50;;;;;;5033646;28;20033;-57
2021/09/09 10:17:52;;;;;;;17.20;13.32;;;23.40;51.50;;;;;;5033220;28;20305;-56
2021/09/09 10:20:33;;;;;;;17.15;12.73;;;23.40;51.00;;;;;;5033645;28;20025;-55
2021/09/09 10:23:07;;;;;;;13.57;11.48;;;23.40;51.10;;;;;;5033488;28;20060;-57
2021/09/09 10:26:01;;;;;;;15.35;12.88;;;23.40;51.30;;;;;;5033682;28;20040;-56
2021/09/09 10:31:00;;;;;;;16.55;12.68;;;23.60;51.30;;;;;;5033340;28;20046;-57
2021/09/09 10:33:28;;;;;;;16.55;11.93;;;23.60;50.60;;;;;;5033150;28;20044;-58
2021/09/09 10:35:55;;;;;;;16.00;12.50;;;23.60;50.20;;;;;;5033211;28;20504;-56
2021/09/09 10:38:21;;;;;;;16.65;13.73;;;23.60;49.80;;;;;;5033016;28;20053;-56
2021/09/09 10:40:49;;;;;;;17.92;13.43;;;23.60;50.60;;;;;;5032880;28;20479;-57
2021/09/09 10:43:24;;;;;;;17.20;12.68;;;23.50;51.20;;;;;;5033687;28;20481;-56
2021/09/09 10:46:01;;;;;;;16.98;11.88;;;23.60;50.40;;;;;;5032893;28;20045;-57
2021/09/09 10:48:30;;;;;;;14.00;12.50;;;23.60;50.10;;;;;;5032595;28;20050;-56
2021/09/09 10:51:05;;;;;;;17.77;10.75;;;23.60;49.70;;;;;;5032209;28;20045;-57
2021/09/09 10:53:36;;;;;;;21.40;12.20;;;23.70;49.90;;;;;;5032544;28;20465;-63
2021/09/09 10:56:15;;;;;;;11.45;9.63;;;23.80;49.20;;;;;;5032569;28;20034;-59
2021/09/09 10:58:42;;;;;;;15.85;9.93;;;23.60;48.60;;;;;;5032835;28;20045;-58
2021/09/09 11:01:09;;;;;;;13.48;10.25;;;23.70;49.30;;;;;;5032093;28;20044;-59
2021/09/09 11:03:46;;;;;;;16.63;12.27;;;23.80;48.80;;;;;;5032929;28;20481;-59
2021/09/09 11:06:24;;;;;;;17.52;12.32;;;23.70;49.20;;;;;;5032579;28;20030;-56
2021/09/09 11:08:56;;;;;;;14.18;10.63;;;23.60;49.80;;;;;;5032804;28;20048;-58
2021/09/09 11:11:25;;;;;;;12.88;11.40;;;23.70;49.40;;;;;;5032360;28;20045;-59
2021/09/09 11:14:00;;;;;;;16.73;11.68;;;23.70;49.00;;;;;;5030804;28;20032;-59
2021/09/09 11:16:34;;;;;;;16.38;11.32;;;23.70;49.20;;;;;;5029558;28;20037;-58
2021/09/09 11:19:02;;;;;;;12.77;10.18;;;23.70;49.00;;;;;;5031194;28;20363;-55
2021/09/09 11:21:41;;;;;;;15.23;11.20;;;23.80;48.40;;;;;;5030004;28;20038;-60
2021/09/09 11:24:10;;;;;;;13.50;11.25;;;23.80;48.00;;;;;;5031023;28;20425;-60
2021/09/09 11:26:39;;;;;;;13.63;11.75;;;23.90;48.90;;;;;;5030715;28;20064;-61
2021/09/09 11:29:06;;;;;;;16.48;10.77;;;24.00;48.60;;;;;;5031236;28;20037;-53
2021/09/09 11:31:42;;;;;;;14.15;11.77;;;24.00;47.20;;;;;;5030620;28;20037;-49
2021/09/09 11:34:09;;;;;;;11.98;9.82;;;24.00;47.20;;;;;;5029545;28;20425;-57
2021/09/09 11:36:44;;;;;;;13.98;11.77;;;24.10;47.40;;;;;;5028772;28;20494;-56
2021/09/09 11:39:14;;;;;;;13.93;10.95;;;24.10;47.90;;;;;;5029767;28;20030;-50
2021/09/09 11:41:41;;;;;;;16.42;12.20;;;24.10;48.60;;;;;;5030481;28;20022;-54
2021/09/09 11:44:24;;;;;;;16.10;14.20;;;24.20;48.80;;;;;;5031047;28;20048;-49
2021/09/09 11:46:50;;;;;;;13.80;11.75;;;24.20;48.80;;;;;;5029260;28;20513;-51
2021/09/09 11:49:18;;;;;;;13.82;11.85;;;24.10;49.00;;;;;;5029888;28;20385;-60
2021/09/09 11:51:47;;;;;;;16.85;12.38;;;24.10;48.90;;;;;;5030919;28;20029;-60
2021/09/09 11:54:27;;;;;;;18.00;12.23;;;24.10;48.90;;;;;;5030742;28;20394;-60
2021/09/09 11:57:03;;;;;;;21.63;14.80;;;24.20;48.50;;;;;;5029949;28;20033;-60
2021/09/09 11:59:30;;;;;;;21.35;16.20;;;24.20;48.60;;;;;;5029143;28;20045;-56
2021/09/09 12:02:05;;;;;;;28.23;19.85;;;24.30;48.90;;;;;;5030995;28;20029;-57
2021/09/09 12:04:37;;;;;;;30.58;22.10;;;24.40;49.00;;;;;;5029408;28;20033;-59
2021/09/09 12:07:06;;;;;;;15.70;13.50;;;24.50;48.70;;;;;;5028655;28;20041;-56
2021/09/09 12:09:37;;;;;;;17.08;13.23;;;24.40;47.90;;;;;;5031410;28;20477;-54
2021/09/09 12:12:05;;;;;;;25.40;16.38;;;24.40;48.00;;;;;;5014809;28;20038;-55
2021/09/09 12:14:36;;;;;;;17.52;12.50;;;24.60;48.50;;;;;;5008837;28;20042;-57
2021/09/09 12:17:12;;;;;;;;;;;24.70;48.10;;;;;;5010079;28;20034;-58
2021/09/09 12:19:56;;;;;;;16.17;12.23;;;24.80;48.00;;;;;;5011709;28;19913;-55
2021/09/09 12:23:09;;;;;;;17.65;13.05;;;24.70;46.70;;;;;;5012506;28;20045;-57
2021/09/09 12:25:37;;;;;;;16.98;12.50;;;24.70;46.10;;;;;;5011640;28;20045;-53
2021/09/09 12:28:11;;;;;;;15.20;10.93;;;24.70;46.20;;;;;;5011504;28;20029;-55
2021/09/09 12:30:51;;;;;;;13.38;10.90;;;24.70;46.20;;;;;;5011769;28;20033;-55
2021/09/09 12:33:23;;;;;;;15.63;12.93;;;24.80;46.30;;;;;;5012328;28;20046;-55
2021/09/09 12:36:11;;;;;;;16.05;10.95;;;24.70;45.80;;;;;;5011896;28;20092;-55
2021/09/09 12:38:49;;;;;;;12.40;11.13;;;24.70;46.20;;;;;;5012185;28;20038;-56
2021/09/09 12:41:18;;;;;;;13.02;11.52;;;24.80;46.10;;;;;;5011904;28;20042;-56
2021/09/09 12:43:53;;;;;;;14.30;11.50;;;24.90;46.00;;;;;;5012660;28;20049;-55